createdAt,value
2018-04-14T00:02:11.498Z,17.40
2018-04-14T00:04:38.987Z,16.87
2018-04-14T00:07:06.461Z,15.73
2018-04-14T00:09:33.958Z,17.20
2018-04-14T00:12:01.417Z,18.33
2018-04-14T00:14:28.901Z,15.30
2018-04-14T00:16:56.378Z,16.83
2018-04-14T00:19:23.870Z,15.70
2018-04-14T00:21:51.334Z,13.67
2018-04-14T00:24:18.798Z,14.00
2018-04-14T00:26:46.285Z,12.00
2018-04-14T00:29:13.758Z,11.93
2018-04-14T00:31:41.254Z,11.00
2018-04-14T00:34:08.730Z,10.23
2018-04-14T00:36:36.218Z,10.20
2018-04-14T00:39:03.692Z,9.40
2018-04-14T00:41:31.170Z,9.97
2018-04-14T00:43:58.637Z,10.73
2018-04-14T00:46:26.132Z,11.03
2018-04-14T00:48:53.604Z,11.93
2018-04-14T00:51:21.112Z,10.27
2018-04-14T00:53:49.395Z,11.17
2018-04-14T00:56:16.889Z,12.03
2018-04-14T00:58:44.345Z,11.50
2018-04-14T01:01:11.822Z,11.20
2018-04-14T01:03:39.291Z,10.33
2018-04-14T01:06:06.765Z,9.33
2018-04-14T01:08:34.230Z,7.80
2018-04-14T01:11:01.707Z,7.20
2018-04-14T01:13:29.158Z,7.03
2018-04-14T01:15:56.660Z,6.70
2018-04-14T01:18:24.104Z,7.03
2018-04-14T01:20:51.581Z,6.60
2018-04-14T01:23:19.041Z,6.33
2018-04-14T01:25:46.513Z,6.70
2018-04-14T01:28:13.971Z,6.60
2018-04-14T01:30:41.458Z,6.47
2018-04-14T01:33:08.909Z,6.37
2018-04-14T01:35:36.395Z,6.60
2018-04-14T01:38:03.845Z,5.90
2018-04-14T01:40:31.317Z,6.43
2018-04-14T01:42:58.765Z,5.77
2018-04-14T01:45:26.250Z,6.47
2018-04-14T01:47:53.726Z,6.53
2018-04-14T01:50:21.185Z,6.03
2018-04-14T01:52:48.658Z,6.47
2018-04-14T01:55:16.109Z,6.90
2018-04-14T01:57:43.577Z,6.13
2018-04-14T02:00:11.035Z,5.40
2018-04-14T02:02:38.513Z,5.77
2018-04-14T02:05:05.974Z,5.47
2018-04-14T02:07:33.453Z,5.07
2018-04-14T02:10:00.909Z,5.37
2018-04-14T02:12:28.390Z,5.17
2018-04-14T02:14:55.851Z,5.33
2018-04-14T02:17:23.327Z,5.60
2018-04-14T02:19:50.798Z,5.50
2018-04-14T02:22:18.272Z,5.70
2018-04-14T02:24:45.731Z,5.00
2018-04-14T02:27:13.204Z,4.50
2018-04-14T02:29:40.662Z,4.60
2018-04-14T02:32:08.162Z,4.87
2018-04-14T02:34:35.623Z,5.57
2018-04-14T02:37:03.098Z,5.30
2018-04-14T02:39:30.562Z,5.80
2018-04-14T02:41:58.046Z,5.77
2018-04-14T02:44:25.510Z,5.27
2018-04-14T02:46:52.992Z,4.93
2018-04-14T02:49:20.447Z,5.27
2018-04-14T02:51:47.937Z,5.57
2018-04-14T02:54:15.402Z,5.67
2018-04-14T02:56:42.874Z,5.80
2018-04-14T02:59:10.338Z,5.77
2018-04-14T03:01:37.869Z,5.17
2018-04-14T03:04:05.329Z,5.20
2018-04-14T03:06:32.805Z,5.37
2018-04-14T03:09:00.268Z,5.40
2018-04-14T03:11:27.749Z,5.67
2018-04-14T03:13:55.210Z,5.37
2018-04-14T03:16:22.682Z,5.67
2018-04-14T03:18:50.134Z,5.10
2018-04-14T03:21:17.597Z,5.70
2018-04-14T03:23:45.073Z,6.03
2018-04-14T03:26:12.545Z,5.63
2018-04-14T03:28:40.013Z,5.07
2018-04-14T03:31:07.474Z,5.20
2018-04-14T03:33:34.949Z,5.90
2018-04-14T03:36:02.406Z,5.17
2018-04-14T03:38:29.900Z,6.07
2018-04-14T03:40:57.350Z,6.63
2018-04-14T03:43:24.831Z,6.83
2018-04-14T03:45:52.289Z,6.73
2018-04-14T03:48:19.772Z,5.83
2018-04-14T03:50:47.233Z,4.53
2018-04-14T03:53:14.714Z,4.70
2018-04-14T03:55:42.170Z,4.80
2018-04-14T03:58:09.646Z,4.90
2018-04-14T04:00:37.097Z,5.17
2018-04-14T04:03:04.595Z,6.07
2018-04-14T04:05:32.054Z,5.53
2018-04-14T04:07:59.525Z,6.07
2018-04-14T04:10:26.990Z,6.07
2018-04-14T04:12:54.477Z,5.77
2018-04-14T04:15:21.943Z,6.77
2018-04-14T04:17:49.423Z,7.30
2018-04-14T04:23:33.561Z,6.93
2018-04-14T04:26:01.014Z,7.20
2018-04-14T04:28:28.505Z,6.97
2018-04-14T04:30:55.961Z,6.73
2018-04-14T04:33:23.425Z,6.93
2018-04-14T04:35:50.883Z,6.87
2018-04-14T04:38:18.366Z,7.70
2018-04-14T04:40:45.822Z,7.40
2018-04-14T04:43:13.290Z,7.13
2018-04-14T04:45:40.744Z,7.70
2018-04-14T04:48:08.218Z,7.57
2018-04-14T04:50:35.674Z,9.20
2018-04-14T04:53:03.148Z,9.10
2018-04-14T04:55:30.605Z,8.77
2018-04-14T04:57:58.082Z,7.67
2018-04-14T05:00:25.538Z,7.20
2018-04-14T05:02:53.024Z,6.83
2018-04-14T05:05:20.481Z,7.10
2018-04-14T05:07:47.933Z,6.13
2018-04-14T05:10:15.409Z,7.07
2018-04-14T05:12:42.867Z,7.10
2018-04-14T05:15:10.346Z,6.73
2018-04-14T05:17:37.803Z,6.63
2018-04-14T05:20:05.286Z,6.80
2018-04-14T05:22:32.739Z,6.27
2018-04-14T05:25:00.209Z,6.27
2018-04-14T05:27:28.290Z,6.43
2018-04-14T05:29:55.770Z,6.57
2018-04-14T05:32:23.230Z,6.93
2018-04-14T05:34:50.701Z,6.77
2018-04-14T05:37:18.159Z,6.20
2018-04-14T05:39:45.638Z,6.17
2018-04-14T05:42:13.091Z,5.93
2018-04-14T05:44:40.574Z,6.53
2018-04-14T05:47:08.035Z,6.63
2018-04-14T05:49:35.514Z,6.90
2018-04-14T05:52:02.969Z,6.80
2018-04-14T05:54:30.447Z,6.40
2018-04-14T05:56:57.908Z,6.50
2018-04-14T05:59:25.432Z,6.60
2018-04-14T06:01:52.871Z,6.27
2018-04-14T06:04:20.345Z,6.40
2018-04-14T06:06:47.795Z,6.60
2018-04-14T06:09:15.300Z,6.73
2018-04-14T06:11:42.757Z,6.60
2018-04-14T06:14:10.239Z,6.40
2018-04-14T06:16:37.690Z,5.80
2018-04-14T06:19:05.166Z,5.97
2018-04-14T06:21:32.622Z,5.97
2018-04-14T06:24:00.130Z,5.90
2018-04-14T06:26:27.585Z,5.80
2018-04-14T06:28:55.070Z,5.67
2018-04-14T06:31:22.535Z,6.03
2018-04-14T06:33:50.035Z,6.30
2018-04-14T06:36:17.490Z,6.30
2018-04-14T06:38:44.958Z,6.73
2018-04-14T06:41:12.442Z,6.90
2018-04-14T06:43:39.910Z,5.80
2018-04-14T06:46:07.383Z,6.87
2018-04-14T06:48:34.846Z,6.27
2018-04-14T06:51:02.334Z,6.43
2018-04-14T06:53:29.799Z,6.23
2018-04-14T06:55:57.281Z,6.47
2018-04-14T06:58:24.742Z,6.20
2018-04-14T07:00:52.230Z,6.10
2018-04-14T07:03:19.690Z,5.80
2018-04-14T07:05:47.168Z,4.90
2018-04-14T07:08:14.642Z,5.60
2018-04-14T07:10:42.126Z,5.43
2018-04-14T07:13:09.589Z,5.50
2018-04-14T07:15:37.068Z,5.17
2018-04-14T07:18:04.539Z,5.73
2018-04-14T07:20:32.039Z,5.83
2018-04-14T07:22:59.764Z,6.10
2018-04-14T07:25:27.311Z,6.07
2018-04-14T07:27:54.930Z,5.93
2018-04-14T07:30:22.427Z,6.67
2018-04-14T07:32:49.878Z,5.63
2018-04-14T07:35:17.778Z,6.30
2018-04-14T07:37:45.241Z,6.17
2018-04-14T07:40:12.713Z,5.97
2018-04-14T07:42:40.169Z,5.93
2018-04-14T07:45:07.654Z,5.87
2018-04-14T07:47:35.118Z,5.93
2018-04-14T07:50:02.639Z,6.33
2018-04-14T07:52:38.038Z,5.50
2018-04-14T07:55:05.518Z,6.07
2018-04-14T07:57:32.976Z,5.87
2018-04-14T08:00:00.477Z,6.17
2018-04-14T08:02:27.979Z,5.53
2018-04-14T08:04:55.508Z,5.00
2018-04-14T08:07:22.990Z,5.70
2018-04-14T08:09:50.461Z,5.00
2018-04-14T08:12:17.949Z,5.13
2018-04-14T08:14:45.406Z,6.00
2018-04-14T08:17:12.890Z,5.37
2018-04-14T08:19:42.132Z,5.17
2018-04-14T08:22:09.619Z,5.40
2018-04-14T08:24:37.142Z,5.37
2018-04-14T08:27:04.573Z,5.73
2018-04-14T08:29:32.030Z,5.07
2018-04-14T08:31:59.509Z,4.73
2018-04-14T08:34:26.969Z,5.03
2018-04-14T08:36:54.453Z,4.90
2018-04-14T08:39:21.926Z,5.57
2018-04-14T08:41:49.414Z,5.03
2018-04-14T08:44:16.989Z,5.63
2018-04-14T08:46:44.534Z,5.13
2018-04-14T08:49:12.089Z,5.37
2018-04-14T08:51:39.583Z,5.00
2018-04-14T08:54:07.049Z,5.40
2018-04-14T08:56:34.531Z,5.30
2018-04-14T08:59:02.005Z,4.97
2018-04-14T09:01:29.486Z,5.10
2018-04-14T09:03:56.956Z,5.30
2018-04-14T09:06:24.521Z,4.77
2018-04-14T09:08:52.005Z,5.40
2018-04-14T09:11:19.478Z,5.60
2018-04-14T09:13:46.946Z,5.17
2018-04-14T09:16:14.432Z,5.93
2018-04-14T09:18:41.922Z,6.30
2018-04-14T09:21:09.412Z,6.20
2018-04-14T09:23:36.889Z,5.67
2018-04-14T09:26:04.345Z,5.77
2018-04-14T09:28:31.849Z,5.57
2018-04-14T09:30:59.315Z,5.57
2018-04-14T09:33:26.793Z,5.80
2018-04-14T09:35:54.258Z,5.57
2018-04-14T09:38:21.737Z,5.27
2018-04-14T09:40:49.196Z,5.67
2018-04-14T09:43:16.687Z,6.33
2018-04-14T09:45:44.144Z,6.10
2018-04-14T09:48:11.625Z,6.27
2018-04-14T09:50:39.081Z,5.90
2018-04-14T09:53:06.638Z,5.57
2018-04-14T09:55:34.094Z,5.40
2018-04-14T09:58:01.586Z,5.57
2018-04-14T10:00:29.049Z,6.30
2018-04-14T10:02:59.967Z,5.20
2018-04-14T10:05:27.396Z,5.30
2018-04-14T10:07:54.876Z,5.57
2018-04-14T10:10:22.341Z,5.70
2018-04-14T10:12:49.840Z,5.33
2018-04-14T10:15:17.301Z,5.77
2018-04-14T10:17:44.786Z,5.63
2018-04-14T10:20:12.246Z,5.20
2018-04-14T10:22:39.732Z,5.03
2018-04-14T10:25:07.204Z,5.00
2018-04-14T10:27:34.680Z,5.53
2018-04-14T10:30:02.153Z,5.90
2018-04-14T10:32:29.638Z,6.53
2018-04-14T10:34:57.101Z,7.37
2018-04-14T10:37:24.577Z,7.57
2018-04-14T10:39:52.050Z,7.50
2018-04-14T10:42:19.534Z,7.17
2018-04-14T10:44:47.001Z,7.37
2018-04-14T10:47:14.494Z,6.83
2018-04-14T10:49:41.955Z,6.60
2018-04-14T10:52:09.421Z,5.83
2018-04-14T10:54:36.924Z,6.97
2018-04-14T10:57:04.411Z,6.47
2018-04-14T10:59:31.894Z,6.50
2018-04-14T11:01:59.350Z,6.17
2018-04-14T11:04:26.843Z,6.00
2018-04-14T11:06:54.299Z,6.50
2018-04-14T11:09:21.790Z,8.77
2018-04-14T11:11:49.249Z,8.43
2018-04-14T11:14:16.733Z,6.90
2018-04-14T11:16:44.401Z,6.50
2018-04-14T11:19:11.890Z,7.50
2018-04-14T11:21:39.350Z,7.63
2018-04-14T11:24:06.829Z,8.33
2018-04-14T11:26:34.298Z,8.50
2018-04-14T11:29:01.801Z,8.73
2018-04-14T11:31:29.314Z,7.60
2018-04-14T11:33:56.762Z,6.67
2018-04-14T11:36:30.826Z,7.23
2018-04-14T11:38:59.184Z,8.93
2018-04-14T11:41:27.044Z,8.03
2018-04-14T11:43:54.553Z,9.73
2018-04-14T11:46:22.087Z,10.03
2018-04-14T11:48:49.611Z,9.13
2018-04-14T11:51:17.152Z,9.60
2018-04-14T11:53:44.675Z,9.87
2018-04-14T11:56:12.164Z,9.60
2018-04-14T11:58:39.751Z,16.67
2018-04-14T12:01:07.238Z,8.00
2018-04-14T12:03:34.767Z,10.73
2018-04-14T12:06:02.268Z,9.27
2018-04-14T12:08:29.826Z,8.40
2018-04-14T12:10:57.368Z,7.73
2018-04-14T12:13:24.947Z,7.10
2018-04-14T12:15:52.683Z,8.60
2018-04-14T12:18:20.191Z,9.37
2018-04-14T12:20:47.798Z,9.67
2018-04-14T12:23:15.298Z,10.80
2018-04-14T12:25:42.887Z,10.20
2018-04-14T12:28:10.387Z,9.50
2018-04-14T12:30:37.933Z,10.47
2018-04-14T12:33:05.865Z,10.13
2018-04-14T12:35:33.429Z,10.60
2018-04-14T12:38:00.958Z,10.10
2018-04-14T12:40:28.505Z,9.90
2018-04-14T12:42:56.022Z,9.50
2018-04-14T12:45:23.594Z,10.13
2018-04-14T12:47:51.106Z,9.20
2018-04-14T12:50:18.638Z,8.70
2018-04-14T12:52:46.170Z,9.40
2018-04-14T12:55:13.698Z,10.13
2018-04-14T12:57:41.198Z,10.07
2018-04-14T13:00:08.754Z,8.90
2018-04-14T13:02:36.319Z,9.70
2018-04-14T13:05:03.879Z,9.63
2018-04-14T13:07:31.369Z,9.80
2018-04-14T13:09:58.906Z,12.93
2018-04-14T13:12:26.410Z,14.20
2018-04-14T13:14:53.998Z,15.60
2018-04-14T13:17:21.556Z,16.53
2018-04-14T13:19:49.100Z,14.80
2018-04-14T13:22:16.675Z,17.83
2018-04-14T13:24:44.329Z,15.30
2018-04-14T13:27:11.794Z,14.90
2018-04-14T13:29:39.339Z,15.60
2018-04-14T13:32:06.842Z,16.23
2018-04-14T13:34:34.361Z,14.10
2018-04-14T13:37:02.027Z,13.93
2018-04-14T13:39:29.609Z,14.20
2018-04-14T13:41:57.642Z,14.20
2018-04-14T13:44:25.145Z,11.23
2018-04-14T13:46:52.694Z,14.50
2018-04-14T13:49:20.199Z,11.30
2018-04-14T13:51:47.738Z,10.00
2018-04-14T13:54:15.619Z,13.20
2018-04-14T13:56:43.126Z,11.33
2018-04-14T13:59:10.717Z,12.90
2018-04-14T14:01:38.254Z,13.53
2018-04-14T14:04:05.755Z,15.85
2018-04-14T14:06:33.275Z,14.97
2018-04-14T14:09:00.788Z,16.10
2018-04-14T14:11:28.324Z,17.73
2018-04-14T14:13:55.848Z,17.57
2018-04-14T14:16:23.398Z,17.63
2018-04-14T14:18:50.905Z,16.73
2018-04-14T14:21:18.491Z,16.70
2018-04-14T14:23:45.986Z,16.27
2018-04-14T14:26:14.121Z,18.13
2018-04-14T14:28:41.629Z,17.33
2018-04-14T14:31:09.178Z,17.77
2018-04-14T14:33:36.718Z,16.87
2018-04-14T14:36:04.209Z,16.77
2018-04-14T14:38:31.690Z,19.00
2018-04-14T14:40:59.223Z,17.80
2018-04-14T14:43:27.055Z,19.67
2018-04-14T14:45:54.638Z,19.97
2018-04-14T14:48:22.187Z,22.80
2018-04-14T14:50:49.726Z,23.43
2018-04-14T14:53:17.230Z,23.70
2018-04-14T14:55:45.485Z,24.70
2018-04-14T14:58:13.001Z,27.17
2018-04-14T15:00:40.548Z,25.03
2018-04-14T15:03:08.048Z,30.10
2018-04-14T15:05:35.659Z,29.77
2018-04-14T15:08:03.281Z,32.07
2018-04-14T15:10:30.855Z,31.27
2018-04-14T15:12:58.392Z,31.03
2018-04-14T15:15:25.930Z,32.03
2018-04-14T15:17:53.543Z,32.90
2018-04-14T15:20:21.078Z,34.50
2018-04-14T15:22:48.601Z,35.73
2018-04-14T15:25:16.320Z,39.93
2018-04-14T15:27:43.832Z,39.87
2018-04-14T15:30:11.355Z,41.80
2018-04-14T15:32:38.897Z,40.50
2018-04-14T15:35:06.466Z,40.97
2018-04-14T15:37:34.086Z,40.10
2018-04-14T15:40:01.686Z,40.27
2018-04-14T15:42:29.250Z,42.83
2018-04-14T15:44:57.146Z,45.40
2018-04-14T15:47:24.731Z,46.20
2018-04-14T15:49:52.227Z,43.60
2018-04-14T15:52:19.865Z,44.47
2018-04-14T15:54:47.380Z,42.73
2018-04-14T15:57:14.968Z,42.97
2018-04-14T15:59:42.469Z,42.63
2018-04-14T16:02:10.169Z,42.77
2018-04-14T16:04:37.697Z,41.30
2018-04-14T16:07:05.486Z,41.87
2018-04-14T16:09:32.999Z,43.03
2018-04-14T16:12:00.538Z,44.13
2018-04-14T16:14:28.036Z,44.70
2018-04-14T16:16:55.608Z,42.47
2018-04-14T16:19:23.662Z,42.97
2018-04-14T16:21:51.255Z,40.97
2018-04-14T16:24:18.906Z,43.17
2018-04-14T16:26:46.418Z,41.27
2018-04-14T16:29:14.038Z,42.77
2018-04-14T16:31:41.626Z,42.50
2018-04-14T16:34:09.140Z,42.37
2018-04-14T16:36:36.653Z,41.13
2018-04-14T16:39:04.169Z,39.87
2018-04-14T16:41:31.752Z,39.07
2018-04-14T16:43:59.274Z,36.17
2018-04-14T16:46:26.769Z,38.07
2018-04-14T16:48:54.308Z,37.23
2018-04-14T16:51:21.789Z,37.77
2018-04-14T16:53:49.283Z,36.83
2018-04-14T16:56:16.817Z,37.73
2018-04-14T16:58:44.351Z,38.10
2018-04-14T17:01:11.881Z,39.30
2018-04-14T17:03:39.457Z,40.13
2018-04-14T17:06:07.011Z,39.13
2018-04-14T17:08:34.540Z,38.93
2018-04-14T17:11:02.079Z,38.47
2018-04-14T17:13:29.648Z,40.17
2018-04-14T17:15:57.146Z,43.23
2018-04-14T17:18:24.761Z,44.60
2018-04-14T17:20:52.305Z,44.80
2018-04-14T17:23:19.862Z,45.17
2018-04-14T17:25:47.349Z,41.83
2018-04-14T17:28:14.846Z,40.33
2018-04-14T17:30:42.378Z,41.67
2018-04-14T17:33:09.958Z,40.10
2018-04-14T17:35:37.502Z,39.37
2018-04-14T17:38:05.047Z,39.97
2018-04-14T17:40:32.602Z,40.47
2018-04-14T17:43:00.125Z,40.40
2018-04-14T17:45:27.633Z,40.27
2018-04-14T17:47:55.154Z,39.80
2018-04-14T17:50:22.882Z,39.70
2018-04-14T17:52:50.390Z,39.07
2018-04-14T17:55:17.909Z,37.67
2018-04-14T17:57:45.454Z,37.63
2018-04-14T18:00:12.980Z,37.23
2018-04-14T18:02:40.454Z,40.00
2018-04-14T18:05:07.979Z,41.30
2018-04-14T18:07:35.555Z,44.50
2018-04-14T18:10:03.095Z,43.80
2018-04-14T18:12:30.602Z,42.20
2018-04-14T18:15:21.911Z,41.27
2018-04-14T18:17:50.366Z,41.57
2018-04-14T18:20:17.895Z,42.97
2018-04-14T18:22:45.399Z,42.73
2018-04-14T18:25:12.878Z,44.80
2018-04-14T18:27:45.882Z,46.30
2018-04-14T18:30:13.379Z,43.80
2018-04-14T18:32:41.154Z,46.83
2018-04-14T18:35:08.690Z,54.47
2018-04-14T18:37:36.227Z,43.93
2018-04-14T18:40:03.728Z,43.40
2018-04-14T18:42:31.258Z,42.63
2018-04-14T18:44:58.739Z,41.83
2018-04-14T18:47:26.339Z,40.37
2018-04-14T18:49:53.813Z,43.10
2018-04-14T18:52:21.349Z,42.53
2018-04-14T18:54:48.844Z,44.23
2018-04-14T18:57:16.465Z,42.93
2018-04-14T18:59:44.054Z,40.17
2018-04-14T19:02:11.582Z,43.43
2018-04-14T19:04:39.109Z,44.47
2018-04-14T19:07:07.817Z,42.63
2018-04-14T19:09:35.337Z,42.47
2018-04-14T19:12:02.967Z,38.27
2018-04-14T19:14:30.482Z,39.80
2018-04-14T19:16:58.950Z,38.43
2018-04-14T19:19:26.435Z,40.90
2018-04-14T19:21:53.962Z,43.30
2018-04-14T19:24:21.459Z,46.53
2018-04-14T19:26:48.977Z,45.07
2018-04-14T19:29:16.499Z,47.10
2018-04-14T19:31:44.049Z,47.73
2018-04-14T19:34:11.627Z,44.50
2018-04-14T19:36:39.140Z,47.93
2018-04-14T19:39:06.629Z,47.97
2018-04-14T19:41:34.160Z,46.43
2018-04-14T19:44:02.038Z,45.27
2018-04-14T19:46:29.559Z,46.50
2018-04-14T19:48:57.394Z,43.03
2018-04-14T19:51:24.979Z,44.33
2018-04-14T19:53:52.506Z,42.43
2018-04-14T19:56:19.981Z,40.80
2018-04-14T19:58:47.534Z,39.40
2018-04-14T20:01:15.138Z,40.83
2018-04-14T20:03:43.485Z,43.17
2018-04-14T20:06:10.985Z,43.70
2018-04-14T20:08:38.497Z,41.77
2018-04-14T20:11:06.058Z,42.47
2018-04-14T20:13:33.610Z,44.87
2018-04-14T20:16:01.968Z,45.97
2018-04-14T20:18:29.499Z,44.63
2018-04-14T20:21:00.120Z,45.60
2018-04-14T20:23:27.655Z,46.47
2018-04-14T20:25:56.055Z,45.70
2018-04-14T20:28:23.574Z,45.40
2018-04-14T20:30:51.246Z,45.47
2018-04-14T20:33:18.771Z,45.50
2018-04-14T20:35:46.287Z,45.30
2018-04-14T20:38:15.401Z,49.40
2018-04-14T20:40:43.127Z,49.23
2018-04-14T20:43:11.390Z,47.10
2018-04-14T20:45:39.918Z,46.97
2018-04-14T20:48:07.441Z,48.50
2018-04-14T20:50:35.894Z,44.87
2018-04-14T20:53:04.395Z,47.10
2018-04-14T20:55:33.336Z,46.63
2018-04-14T20:58:02.602Z,46.57
2018-04-14T21:00:30.112Z,45.60
2018-04-14T21:02:58.399Z,48.00
2018-04-14T21:05:25.891Z,49.30
2018-04-14T21:07:53.478Z,49.33
2018-04-14T21:10:21.434Z,49.57
2018-04-14T21:12:49.202Z,49.87
2018-04-14T21:15:16.716Z,47.57
2018-04-14T21:17:47.275Z,48.70
2018-04-14T21:20:14.821Z,47.53
2018-04-14T21:22:42.407Z,49.13
2018-04-14T21:25:10.847Z,50.00
2018-04-14T21:27:38.430Z,49.67
2018-04-14T21:30:05.932Z,48.23
2018-04-14T21:32:33.469Z,48.43
2018-04-14T21:35:01.089Z,47.57
2018-04-14T21:37:28.792Z,48.50
2018-04-14T21:39:56.444Z,47.20
2018-04-14T21:42:24.706Z,48.30
2018-04-14T21:44:52.253Z,49.90
2018-04-14T21:47:19.827Z,49.90
2018-04-14T21:49:48.675Z,48.47
2018-04-14T21:52:16.677Z,51.80
2018-04-14T21:54:44.308Z,48.40
2018-04-14T21:57:11.842Z,47.90
2018-04-14T21:59:39.363Z,51.70
2018-04-14T22:02:07.110Z,55.33
2018-04-14T22:04:34.923Z,56.00
2018-04-14T22:07:05.933Z,56.00
2018-04-14T22:09:33.567Z,56.73
2018-04-14T22:12:01.093Z,56.33
2018-04-14T22:14:34.427Z,56.03
2018-04-14T22:17:02.056Z,54.67
2018-04-14T22:19:29.608Z,53.07
2018-04-14T22:21:57.466Z,52.23
2018-04-14T22:24:25.647Z,54.63
2018-04-14T22:26:53.197Z,54.30
2018-04-14T22:29:20.742Z,57.87
2018-04-14T22:31:48.282Z,59.27
2018-04-14T22:34:15.786Z,59.70
2018-04-14T22:36:44.027Z,59.07
2018-04-14T22:39:12.458Z,51.63
2018-04-14T22:41:40.065Z,52.30
2018-04-14T22:44:07.578Z,49.33
2018-04-14T22:46:35.229Z,49.47
2018-04-14T22:49:02.726Z,49.30
2018-04-14T22:51:30.248Z,49.07
2018-04-14T22:53:59.665Z,50.33
2018-04-14T22:56:27.716Z,48.07
2018-04-14T22:58:56.731Z,49.73
2018-04-14T23:01:24.233Z,48.47
2018-04-14T23:03:52.617Z,49.77
2018-04-14T23:06:20.158Z,46.13
2018-04-14T23:08:48.546Z,43.17
2018-04-14T23:11:16.070Z,39.33
2018-04-14T23:13:43.676Z,41.47
2018-04-14T23:16:11.205Z,38.93
2018-04-14T23:18:38.752Z,37.03
2018-04-14T23:21:06.261Z,36.40
2018-04-14T23:23:33.794Z,35.50
2018-04-14T23:26:01.330Z,36.17
2018-04-14T23:28:28.849Z,35.23
2018-04-14T23:30:56.389Z,34.20
2018-04-14T23:33:23.929Z,31.13
2018-04-14T23:35:51.440Z,29.03
2018-04-14T23:38:18.994Z,27.17
2018-04-14T23:40:46.754Z,26.23
2018-04-14T23:43:14.321Z,24.77
2018-04-14T23:45:41.837Z,25.70
2018-04-14T23:48:09.385Z,24.50
2018-04-14T23:50:36.933Z,24.07
2018-04-14T23:53:04.471Z,24.90
2018-04-14T23:55:31.984Z,24.40
2018-04-14T23:57:59.545Z,21.90
